Time;durP1;ratioP1;P1;durP2;ratioP2;P2;SDS_P1;SDS_P2;PMS_P1;PMS_P2;Temp;Humidity;BMP_temperature;BMP_pressure;BME280_temperature;BME280_humidity;BME280_pressure;Samples;Min_cycle;Max_cycle;Signal;HPM_P1;HPM_P2
2022/02/07 00:00:10;;;;;;;;;;;;;;;1.25;85.82;99689.19;5075366;28;1369;-56
2022/02/07 00:05:24;;;;;;;;;;;;;;;0.59;86.12;99680.91;5093673;28;700;-57
2022/02/07 00:07:50;;;;;;;;;;;;;;;0.32;86.93;99678.81;5093047;28;1988;-58
2022/02/07 00:10:17;;;;;;;;;;;;;;;0.25;87.95;99675.84;5093133;28;858;-57
2022/02/07 00:12:45;;;;;;;;;;;;;;;0.30;87.61;99676.44;5093073;28;842;-57
2022/02/07 00:15:12;;;;;;;;;;;;;;;0.42;87.61;99667.50;5093054;28;925;-57
2022/02/07 00:17:39;;;;;;;;;;;;;;;0.35;87.37;99659.91;5092898;28;898;-57
2022/02/07 00:20:11;;;;;;;;;;;;;;;0.18;87.85;99654.66;5093036;28;880;-57
2022/02/07 00:22:37;;;;;;;;;;;;;;;0.01;88.22;99652.91;5081572;28;1264;-58
2022/02/07 00:25:04;;;;;;;;;;;;;;;-0.08;88.45;99652.22;5072604;28;926;-57
2022/02/07 00:27:29;;;;;;;;;;;;;;;-0.14;88.60;99648.13;5072352;28;867;-57
2022/02/07 00:29:56;;;;;;;;;;;;;;;-0.23;88.88;99648.19;5072536;28;1968;-57
2022/02/07 00:32:22;;;;;;;;;;;;;;;-0.31;89.52;99646.34;5072213;28;811;-57
2022/02/07 00:34:49;;;;;;;;;;;;;;;-0.31;89.75;99649.84;5072187;28;858;-57
2022/02/07 00:37:15;;;;;;;;;;;;;;;-0.40;90.28;99641.00;5072319;28;897;-57
2022/02/07 00:39:51;;;;;;;;;;;;;;;-0.40;91.07;99643.72;5072131;28;942;-57
2022/02/07 00:42:26;;;;;;;;;;;;;;;-0.42;90.62;99640.53;5072108;28;938;-57
2022/02/07 00:44:54;;;;;;;;;;;;;;;-0.45;91.29;99631.13;5072192;28;863;-57
2022/02/07 00:47:21;;;;;;;;;;;;;;;-0.47;91.30;99624.44;5071975;28;864;-57
2022/02/07 00:49:48;;;;;;;;;;;;;;;-0.26;91.95;99625.19;5072375;28;1943;-57
2022/02/07 00:52:14;;;;;;;;;;;;;;;-0.13;91.35;99609.72;5072036;28;803;-57
2022/02/07 00:54:40;;;;;;;;;;;;;;;-0.21;90.88;99608.69;5072295;28;878;-58
2022/02/07 00:57:07;;;;;;;;;;;;;;;-0.10;91.26;99605.56;5072220;28;922;-57
2022/02/07 00:59:33;;;;;;;;;;;;;;;-0.02;91.15;99601.97;5072133;28;1025;-57
2022/02/07 01:02:00;;;;;;;;;;;;;;;-0.05;90.78;99599.91;5072338;28;898;-57
2022/02/07 01:04:26;;;;;;;;;;;;;;;-0.19;90.08;99592.06;5072463;28;845;-58
2022/02/07 01:06:53;;;;;;;;;;;;;;;-0.30;90.77;99591.72;5071799;28;827;-57
2022/02/07 01:09:23;;;;;;;;;;;;;;;-0.38;90.76;99586.34;5071676;28;1878;-57
2022/02/07 01:14:31;;;;;;;;;;;;;;;-0.50;92.43;99568.88;5074060;28;755;-57
2022/02/07 01:17:47;;;;;;;;;;;;;;;-0.38;92.61;99554.56;5072087;28;1054;-57
2022/02/07 01:52:43;;;;;;;;;;;;;;;-0.56;92.47;99494.19;5091464;28;763;-57
2022/02/07 01:55:33;;;;;;;;;;;;;;;-0.48;93.34;99489.81;5091456;28;846;-56
2022/02/07 01:57:57;;;;;;;;;;;;;;;-0.39;92.96;99495.16;5091085;28;1901;-58
2022/02/07 02:00:23;;;;;;;;;;;;;;;-0.35;92.90;99487.91;5091559;28;843;-57
2022/02/07 02:02:50;;;;;;;;;;;;;;;-0.37;92.41;99495.59;5091578;28;799;-58
2022/02/07 02:05:17;;;;;;;;;;;;;;;-0.30;92.65;99482.25;5091487;28;799;-58
2022/02/07 02:07:44;;;;;;;;;;;;;;;-0.20;92.80;99487.25;5107117;28;921;-58
2022/02/07 02:10:11;;;;;;;;;;;;;;;-0.04;92.60;99485.47;5091219;28;1890;-58
2022/02/07 02:12:47;;;;;;;;;;;;;;;0.02;92.29;99488.72;5091325;28;918;-58
2022/02/07 02:15:34;;;;;;;;;;;;;;;0.07;92.01;99488.53;5090949;28;1004;-58
2022/02/07 02:47:46;;;;;;;;;;;;;;;-0.47;92.17;99435.19;5049090;28;680;-58
2022/02/07 02:50:56;;;;;;;;;;;;;;;-0.29;92.76;99443.13;5048658;28;1874;-58
2022/02/07 02:53:02;;;;;;;;;;;;;;;-0.37;91.77;99446.72;5043161;28;1419;-58
2022/02/07 02:55:30;;;;;;;;;;;;;;;-0.41;92.22;99441.16;5048700;28;920;-58
2022/02/07 02:57:57;;;;;;;;;;;;;;;-0.16;92.48;99441.97;5051922;28;803;-58
2022/02/07 03:00:24;;;;;;;;;;;;;;;0.00;92.14;99439.41;5051957;28;966;-58
2022/02/07 03:02:50;;;;;;;;;;;;;;;-0.09;91.58;99436.75;5080340;28;931;-58
2022/02/07 03:05:17;;;;;;;;;;;;;;;-0.34;91.04;99435.97;5115049;28;865;-58
2022/02/07 03:07:44;;;;;;;;;;;;;;;-0.59;91.42;99415.38;5114875;28;826;-58
2022/02/07 03:10:21;;;;;;;;;;;;;;;-0.66;92.46;99427.56;5114756;28;1890;-58
2022/02/07 03:13:00;;;;;;;;;;;;;;;-0.63;92.33;99421.44;5114659;28;905;-58
2022/02/07 03:18:12;;;;;;;;;;;;;;;-0.65;92.86;99406.63;5114575;28;697;-58
2022/02/07 03:20:38;;;;;;;;;;;;;;;-0.39;93.58;99398.16;5114519;28;880;-58
2022/02/07 03:23:05;;;;;;;;;;;;;;;-0.21;92.70;99398.75;5114396;28;1163;-58
2022/02/07 03:25:33;;;;;;;;;;;;;;;-0.49;91.85;99394.00;5114497;28;845;-58
2022/02/07 03:28:00;;;;;;;;;;;;;;;-0.66;92.00;99386.84;5114302;28;1967;-58
2022/02/07 03:30:26;;;;;;;;;;;;;;;-0.79;92.59;99385.25;5096037;28;1333;-58
2022/02/07 03:32:52;;;;;;;;;;;;;;;-0.86;92.43;99383.06;5114339;28;897;-59
2022/02/07 03:35:19;;;;;;;;;;;;;;;-0.80;92.88;99389.06;5114604;28;790;-58
2022/02/07 03:37:46;;;;;;;;;;;;;;;-0.69;93.04;99384.00;5114508;28;822;-58
2022/02/07 03:40:13;;;;;;;;;;;;;;;-0.63;92.30;99379.94;5114393;28;850;-58
2022/02/07 03:42:40;;;;;;;;;;;;;;;-0.66;92.50;99378.69;5114431;28;866;-59
2022/02/07 03:45:06;;;;;;;;;;;;;;;-0.69;92.33;99375.88;5114206;28;854;-58
2022/02/07 03:47:33;;;;;;;;;;;;;;;-0.76;92.20;99368.28;5130296;27;1254;-58
2022/02/07 03:49:59;;;;;;;;;;;;;;;-0.86;91.96;99369.50;5114197;28;1967;-58
2022/02/07 03:52:27;;;;;;;;;;;;;;;-1.03;92.58;99359.63;5113961;28;881;-58
2022/02/07 03:54:53;;;;;;;;;;;;;;;-1.02;92.97;99363.16;5114443;28;806;-58
2022/02/07 03:57:19;;;;;;;;;;;;;;;-1.06;93.01;99356.81;5113765;28;858;-58
2022/02/07 03:59:45;;;;;;;;;;;;;;;-0.97;93.48;99356.72;5113629;28;831;-58
2022/02/07 04:02:12;;;;;;;;;;;;;;;-0.88;93.67;99357.41;5113930;28;823;-58
2022/02/07 04:04:40;;;;;;;;;;;;;;;-0.75;93.68;99364.41;5113694;28;893;-58
2022/02/07 04:07:08;;;;;;;;;;;;;;;-0.65;93.34;99358.56;5112997;28;992;-58
2022/02/07 04:09:41;;;;;;;;;;;;;;;-0.57;93.48;99356.09;5113419;28;1944;-58
2022/02/07 04:12:21;;;;;;;;;;;;;;;-0.50;93.32;99350.88;5113591;28;873;-59
2022/02/07 04:14:47;;;;;;;;;;;;;;;-0.52;93.18;99345.00;5113486;28;854;-58
2022/02/07 04:17:20;;;;;;;;;;;;;;;-0.55;92.71;99334.84;5113763;28;1069;-58
2022/02/07 04:19:46;;;;;;;;;;;;;;;-0.74;92.26;99336.16;5113572;28;897;-59
2022/02/07 04:22:13;;;;;;;;;;;;;;;-0.87;92.79;99340.00;5113433;28;1406;-58
2022/02/07 04:24:39;;;;;;;;;;;;;;;-1.01;93.03;99331.38;5113705;28;1043;-58
2022/02/07 04:27:05;;;;;;;;;;;;;;;-1.16;93.00;99328.19;5113920;28;826;-58
2022/02/07 04:29:32;;;;;;;;;;;;;;;-1.28;93.03;99330.84;5112966;28;1973;-58
2022/02/07 04:31:58;;;;;;;;;;;;;;;-1.21;94.33;99325.69;5113129;28;819;-58
2022/02/07 04:34:25;;;;;;;;;;;;;;;-1.12;94.09;99325.59;5113131;28;817;-58
2022/02/07 04:36:54;;;;;;;;;;;;;;;-1.15;93.89;99329.78;5113016;28;831;-58
2022/02/07 04:39:20;;;;;;;;;;;;;;;-1.17;93.74;99329.31;5112888;28;925;-58
2022/02/07 04:41:47;;;;;;;;;;;;;;;-1.15;93.95;99331.69;5112917;28;846;-58
2022/02/07 04:44:21;;;;;;;;;;;;;;;-1.22;93.98;99326.81;5112865;28;848;-58
2022/02/07 04:49:27;;;;;;;;;;;;;;;-1.29;94.35;99319.22;5112755;28;1947;-59
2022/02/07 04:52:20;;;;;;;;;;;;;;;-1.37;95.05;99320.09;5112737;28;818;-57
2022/02/07 04:55:04;;;;;;;;;;;;;;;-1.54;94.49;99314.84;5112578;28;1290;-58
2022/02/07 05:16:18;;;;;;;;;;;;;;;-1.79;95.68;99294.97;5112644;28;1043;-57
2022/02/07 05:18:45;;;;;;;;;;;;;;;-1.82;95.72;99287.53;5111608;28;819;-57
2022/02/07 05:21:12;;;;;;;;;;;;;;;-1.73;96.36;99282.81;5112119;28;933;-57
2022/02/07 05:23:38;;;;;;;;;;;;;;;-1.35;97.14;99282.59;5112062;28;1428;-57
2022/02/07 05:26:05;;;;;;;;;;;;;;;-1.44;95.94;99285.41;5112263;28;822;-57
2022/02/07 05:28:31;;;;;;;;;;;;;;;-1.53;95.72;99289.34;5111987;28;1976;-57
2022/02/07 05:30:57;;;;;;;;;;;;;;;-1.53;95.91;99294.75;5112100;28;857;-57
2022/02/07 05:33:24;;;;;;;;;;;;;;;-1.51;96.51;99284.38;5112170;28;826;-57
2022/02/07 05:35:50;;;;;;;;;;;;;;;-1.47;96.29;99298.84;5112183;28;916;-57
2022/02/07 05:38:17;;;;;;;;;;;;;;;-1.41;96.60;99302.91;5112077;28;814;-57
2022/02/07 05:40:53;;;;;;;;;;;;;;;-1.26;96.80;99305.00;5111925;28;918;-57
2022/02/07 05:43:19;;;;;;;;;;;;;;;-1.16;97.01;99298.34;5111998;28;826;-57
2022/02/07 05:45:46;;;;;;;;;;;;;;;-1.01;96.95;99291.47;5112184;28;870;-57
2022/02/07 05:48:13;;;;;;;;;;;;;;;-0.79;97.13;99300.31;5113035;28;1949;-57
2022/02/07 05:50:39;;;;;;;;;;;;;;;-0.63;97.41;99288.44;5112331;28;866;-57
2022/02/07 05:53:05;;;;;;;;;;;;;;;-0.42;97.38;99282.09;5111871;28;912;-57
2022/02/07 05:55:31;;;;;;;;;;;;;;;-0.13;97.21;99296.53;5111828;28;890;-57
2022/02/07 05:57:58;;;;;;;;;;;;;;;0.16;96.67;99292.72;5111709;28;846;-56
2022/02/07 06:00:25;;;;;;;;;;;;;;;0.51;95.87;99289.41;5111865;28;810;-56
2022/02/07 06:02:52;;;;;;;;;;;;;;;0.93;94.81;99283.50;5111800;28;830;-57
2022/02/07 06:05:18;;;;;;;;;;;;;;;1.31;93.59;99285.59;5111814;28;822;-57
2022/02/07 06:07:44;;;;;;;;;;;;;;;1.79;93.00;99282.78;5111772;28;887;-57
2022/02/07 06:10:11;;;;;;;;;;;;;;;2.33;91.40;99289.38;5111555;28;2326;-58
2022/02/07 06:12:39;;;;;;;;;;;;;;;2.69;90.05;99281.84;5111699;28;862;-58
2022/02/07 06:15:07;;;;;;;;;;;;;;;2.91;88.72;99283.03;5111668;28;1023;-58
2022/02/07 06:17:34;;;;;;;;;;;;;;;3.23;88.94;99287.09;5111602;28;955;-58
2022/02/07 06:20:00;;;;;;;;;;;;;;;3.80;88.44;99268.03;5111700;28;977;-58
2022/02/07 06:22:27;;;;;;;;;;;;;;;4.17;86.83;99272.78;5093234;28;1216;-58
2022/02/07 06:24:53;;;;;;;;;;;;;;;4.56;84.48;99266.97;5070943;28;902;-58
2022/02/07 06:27:20;;;;;;;;;;;;;;;4.50;83.48;99273.94;5071083;28;874;-58
2022/02/07 06:29:47;;;;;;;;;;;;;;;4.44;84.49;99273.50;5070994;28;1918;-58
2022/02/07 06:32:12;;;;;;;;;;;;;;;4.59;82.12;99265.47;5074685;28;870;-58
2022/02/07 06:34:39;;;;;;;;;;;;;;;4.80;80.67;99260.19;5074657;28;1053;-58
2022/02/07 06:37:06;;;;;;;;;;;;;;;4.94;79.55;99256.78;5074787;28;838;-58
2022/02/07 06:39:33;;;;;;;;;;;;;;;5.09;78.74;99260.44;5074892;28;815;-58
2022/02/07 06:41:59;;;;;;;;;;;;;;;5.37;77.22;99259.88;5074899;28;834;-58
2022/02/07 06:44:27;;;;;;;;;;;;;;;5.85;76.11;99259.81;5074409;28;911;-58
2022/02/07 06:46:54;;;;;;;;;;;;;;;6.50;76.62;99268.31;5074343;28;899;-58
2022/02/07 06:49:21;;;;;;;;;;;;;;;7.11;74.24;99269.22;5074281;28;1955;-58
2022/02/07 06:51:47;;;;;;;;;;;;;;;7.78;71.76;99255.78;5074141;28;977;-58
2022/02/07 06:54:14;;;;;;;;;;;;;;;8.26;71.09;99246.22;5074458;28;862;-58
2022/02/07 06:56:41;;;;;;;;;;;;;;;8.51;69.26;99243.34;5074142;28;858;-58
2022/02/07 06:59:07;;;;;;;;;;;;;;;8.65;67.79;99246.03;5089921;28;877;-58
2022/02/07 07:01:34;;;;;;;;;;;;;;;8.51;68.40;99243.34;5074214;28;878;-58
2022/02/07 07:04:02;;;;;;;;;;;;;;;8.61;68.10;99244.47;5074207;28;906;-58
2022/02/07 07:06:28;;;;;;;;;;;;;;;8.51;66.13;99249.66;5073899;28;973;-58
2022/02/07 07:08:55;;;;;;;;;;;;;;;8.44;66.14;99251.66;5074131;28;1890;-58
2022/02/07 07:11:25;;;;;;;;;;;;;;;8.31;65.29;99251.28;5073844;28;890;-58
2022/02/07 07:13:55;;;;;;;;;;;;;;;8.39;64.55;99258.34;5073850;28;907;-59
2022/02/07 07:19:01;;;;;;;;;;;;;;;9.45;63.63;99257.22;5073916;28;724;-58
2022/02/07 07:21:28;;;;;;;;;;;;;;;9.82;62.62;99248.97;5074150;28;1250;-58
2022/02/07 07:23:54;;;;;;;;;;;;;;;10.33;60.39;99238.16;5093921;28;874;-59
2022/02/07 07:26:24;;;;;;;;;;;;;;;10.86;60.07;99240.59;5094003;28;882;-59
2022/02/07 07:28:52;;;;;;;;;;;;;;;10.59;60.19;99242.16;5093812;28;1918;-59
2022/02/07 07:31:19;;;;;;;;;;;;;;;10.37;60.86;99238.91;5093869;28;946;-59
2022/02/07 07:33:51;;;;;;;;;;;;;;;10.66;60.37;99243.25;5093764;28;918;-59
2022/02/07 07:36:17;;;;;;;;;;;;;;;10.57;58.59;99236.25;5093874;28;933;-59
2022/02/07 07:38:44;;;;;;;;;;;;;;;10.32;59.26;99238.56;5093735;28;842;-59
2022/02/07 07:41:11;;;;;;;;;;;;;;;10.14;60.74;99241.53;5093573;28;898;-59
2022/02/07 07:43:39;;;;;;;;;;;;;;;9.48;62.50;99246.16;5092972;28;882;-59
2022/02/07 07:46:11;;;;;;;;;;;;;;;8.74;64.28;99240.84;5093417;28;965;-58
2022/02/07 07:48:41;;;;;;;;;;;;;;;8.07;66.20;99233.69;5093414;28;1894;-58
2022/02/07 07:51:21;;;;;;;;;;;;;;;7.43;67.42;99235.44;5093338;28;976;-59
2022/02/07 07:54:13;;;;;;;;;;;;;;;6.97;70.63;99241.72;5093414;28;879;-59
2022/02/07 08:02:14;;;;;;;;;;;;;;;7.44;70.14;99215.00;5093594;28;630;-59
2022/02/07 08:04:42;;;;;;;;;;;;;;;8.24;68.56;99216.31;5092834;28;945;-59
2022/02/07 08:12:09;;;;;;;;;;;;;;;8.42;68.20;99191.47;5093077;28;677;-59
2022/02/07 08:14:36;;;;;;;;;;;;;;;8.55;67.71;99178.00;5093689;28;839;-58
2022/02/07 08:17:03;;;;;;;;;;;;;;;8.69;68.18;99177.91;5093453;28;1043;-58
2022/02/07 08:19:30;;;;;;;;;;;;;;;8.94;67.21;99174.16;5093087;28;826;-59
2022/02/07 08:21:57;;;;;;;;;;;;;;;9.15;66.29;99173.19;5092626;28;1693;-59
2022/02/07 08:24:24;;;;;;;;;;;;;;;8.81;66.56;99171.13;5093428;28;842;-59
2022/02/07 08:26:53;;;;;;;;;;;;;;;8.57;67.49;99168.13;5092823;28;847;-59
2022/02/07 08:29:20;;;;;;;;;;;;;;;8.26;68.15;99172.66;5092572;28;1922;-59
2022/02/07 08:31:47;;;;;;;;;;;;;;;8.04;68.70;99160.19;5092984;28;869;-59
2022/02/07 08:34:13;;;;;;;;;;;;;;;7.86;69.21;99163.03;5092985;28;893;-59
2022/02/07 08:36:39;;;;;;;;;;;;;;;7.76;69.95;99153.63;5093004;28;795;-59
2022/02/07 08:39:07;;;;;;;;;;;;;;;7.81;70.17;99161.47;5092716;28;921;-59
2022/02/07 08:41:35;;;;;;;;;;;;;;;7.89;70.22;99162.97;5092897;28;861;-59
2022/02/07 08:44:02;;;;;;;;;;;;;;;7.93;70.21;99157.47;5092833;28;922;-59
2022/02/07 08:46:29;;;;;;;;;;;;;;;8.10;69.78;99164.84;5092690;28;852;-59
2022/02/07 08:48:57;;;;;;;;;;;;;;;8.34;70.07;99160.41;5092506;28;1953;-59
2022/02/07 08:51:24;;;;;;;;;;;;;;;8.91;68.38;99164.72;5092399;28;870;-59
2022/02/07 08:53:52;;;;;;;;;;;;;;;9.11;66.77;99167.72;5092284;28;1021;-58
2022/02/07 08:56:27;;;;;;;;;;;;;;;9.02;66.77;99167.41;5092220;28;934;-59
2022/02/07 08:58:55;;;;;;;;;;;;;;;9.07;67.19;99158.72;5092313;28;882;-59
2022/02/07 09:01:27;;;;;;;;;;;;;;;9.39;65.95;99160.38;5091971;28;856;-59
2022/02/07 09:04:42;;;;;;;;;;;;;;;9.63;65.73;99160.50;5092132;28;815;-59
2022/02/07 09:07:14;;;;;;;;;;;;;;;9.47;65.82;99155.53;5091735;28;1673;-59
2022/02/07 09:09:44;;;;;;;;;;;;;;;9.87;65.04;99147.59;5091890;28;1909;-59
2022/02/07 09:12:11;;;;;;;;;;;;;;;9.89;64.70;99147.97;5091986;28;866;-59
2022/02/07 09:15:07;;;;;;;;;;;;;;;10.03;64.58;99147.78;5092041;28;874;-59
2022/02/07 09:17:25;;;;;;;;;;;;;;;9.90;63.83;99133.75;5090974;28;1597;-59
2022/02/07 09:19:55;;;;;;;;;;;;;;;9.63;65.01;99138.44;5091813;28;913;-58
2022/02/07 09:25:24;;;;;;;;;;;;;;;9.43;65.65;99127.22;5091793;28;704;-59
2022/02/07 09:27:50;;;;;;;;;;;;;;;9.44;65.22;99135.09;5091938;28;863;-59
2022/02/07 09:30:16;;;;;;;;;;;;;;;9.68;65.00;99115.91;5091747;28;1938;-59
2022/02/07 09:32:43;;;;;;;;;;;;;;;9.53;65.13;99116.06;5091672;28;1232;-59
2022/02/07 09:35:10;;;;;;;;;;;;;;;9.60;65.03;99110.47;5091824;28;787;-59
2022/02/07 09:37:36;;;;;;;;;;;;;;;9.59;64.58;99095.09;5091464;28;970;-59
2022/02/07 09:40:02;;;;;;;;;;;;;;;9.74;64.73;99092.16;5091666;28;840;-58
2022/02/07 09:42:29;;;;;;;;;;;;;;;10.21;63.52;99084.03;5107571;28;547;-59
2022/02/07 09:45:07;;;;;;;;;;;;;;;10.45;62.15;99075.81;5091839;28;819;-59
2022/02/07 09:47:33;;;;;;;;;;;;;;;10.45;62.43;99073.81;5091603;28;1156;-59
2022/02/07 09:50:00;;;;;;;;;;;;;;;10.36;62.92;99065.28;5091547;28;1889;-59
2022/02/07 09:52:27;;;;;;;;;;;;;;;10.22;63.08;99058.75;5091586;28;799;-59
2022/02/07 09:54:53;;;;;;;;;;;;;;;9.96;63.68;99048.50;5091210;28;888;-59
2022/02/07 09:57:20;;;;;;;;;;;;;;;9.74;63.89;99048.78;5091601;28;870;-59
2022/02/07 09:59:51;;;;;;;;;;;;;;;9.58;64.60;99041.13;5073133;28;807;-59
2022/02/07 10:02:32;;;;;;;;;;;;;;;9.43;65.28;99034.25;5091164;28;1145;-59
2022/02/07 10:05:07;;;;;;;;;;;;;;;9.27;65.50;99021.03;5091575;28;838;-59
2022/02/07 10:07:43;;;;;;;;;;;;;;;9.10;66.29;99014.53;5095368;28;1139;-59
2022/02/07 10:10:18;;;;;;;;;;;;;;;9.00;67.00;99007.16;5095294;28;1881;-59
2022/02/07 10:18:20;;;;;;;;;;;;;;;9.42;66.34;99012.59;5095354;28;755;-59
2022/02/07 10:40:16;;;;;;;;;;;;;;;9.77;65.17;98965.19;5094883;28;680;-58
2022/02/07 10:43:11;;;;;;;;;;;;;;;9.84;65.37;98953.25;5094767;28;910;-58
2022/02/07 10:46:11;;;;;;;;;;;;;;;9.98;64.83;98952.22;5094854;28;913;-58
2022/02/07 10:48:42;;;;;;;;;;;;;;;10.09;64.63;98941.81;5094832;28;1959;-58
2022/02/07 10:51:10;;;;;;;;;;;;;;;10.11;64.34;98930.34;5094640;28;818;-58
2022/02/07 10:53:47;;;;;;;;;;;;;;;10.05;64.66;98932.00;5094636;28;865;-58
2022/02/07 10:56:15;;;;;;;;;;;;;;;9.95;65.04;98937.28;5094459;28;899;-59
2022/02/07 10:58:42;;;;;;;;;;;;;;;10.01;64.52;98938.38;5076385;28;1447;-58
2022/02/07 11:01:25;;;;;;;;;;;;;;;10.13;64.49;98936.22;5094438;28;942;-58
2022/02/07 11:04:02;;;;;;;;;;;;;;;10.02;64.98;98933.63;5094385;28;994;-58
2022/02/07 11:06:36;;;;;;;;;;;;;;;10.02;65.34;98917.06;5094451;28;935;-58
2022/02/07 11:09:14;;;;;;;;;;;;;;;10.13;65.11;98906.63;5094399;28;1890;-58
2022/02/07 11:17:23;;;;;;;;;;;;;;;9.39;66.96;98899.13;5093722;28;957;-59
2022/02/07 11:21:00;;;;;;;;;;;;;;;9.25;68.15;98895.81;5093974;28;1951;-58
2022/02/07 11:23:26;;;;;;;;;;;;;;;9.69;68.53;98880.19;5075625;28;1469;-58
2022/02/07 11:28:22;;;;;;;;;;;;;;;10.29;66.99;98883.09;5094131;28;901;-58
2022/02/07 11:30:50;;;;;;;;;;;;;;;10.45;66.73;98880.44;5093868;28;886;-59
2022/02/07 11:33:34;;;;;;;;;;;;;;;10.36;66.64;98872.69;5093609;28;870;-59
2022/02/07 11:36:03;;;;;;;;;;;;;;;10.33;67.31;98861.75;5093910;28;819;-59
2022/02/07 11:38:30;;;;;;;;;;;;;;;10.49;66.74;98866.56;5093752;28;1227;-59
2022/02/07 11:40:58;;;;;;;;;;;;;;;10.63;66.47;98860.75;5093694;28;866;-59
2022/02/07 11:43:26;;;;;;;;;;;;;;;11.13;65.77;98854.16;5093993;28;814;-59
2022/02/07 11:46:22;;;;;;;;;;;;;;;11.62;64.43;98840.34;5093701;28;822;-59
2022/02/07 11:48:51;;;;;;;;;;;;;;;11.81;62.76;98838.69;5031443;28;1946;-58
2022/02/07 11:51:19;;;;;;;;;;;;;;;11.96;62.37;98828.06;5031209;28;950;-59
2022/02/07 11:53:49;;;;;;;;;;;;;;;12.06;62.03;98823.47;5031125;28;930;-59
2022/02/07 11:56:22;;;;;;;;;;;;;;;11.89;61.71;98824.72;5031181;28;950;-59
2022/02/07 12:01:53;;;;;;;;;;;;;;;12.23;61.83;98802.03;5031373;28;1105;-59
2022/02/07 12:04:28;;;;;;;;;;;;;;;12.88;60.49;98790.63;5030901;28;1294;-59
2022/02/07 12:07:13;;;;;;;;;;;;;;;13.21;59.26;98784.09;5030957;28;1013;-59
2022/02/07 12:10:02;;;;;;;;;;;;;;;12.97;59.84;98778.91;5030984;28;1961;-58
2022/02/07 12:13:04;;;;;;;;;;;;;;;12.45;60.91;98775.28;5030800;28;981;-59
2022/02/07 12:15:43;;;;;;;;;;;;;;;11.69;63.01;98774.97;5030458;28;1238;-59
2022/02/07 12:18:13;;;;;;;;;;;;;;;11.32;64.32;98774.31;5030350;28;1170;-59
2022/02/07 12:20:41;;;;;;;;;;;;;;;11.05;64.79;98767.03;5030835;28;906;-59
2022/02/07 12:23:10;;;;;;;;;;;;;;;10.94;64.96;98764.50;5030651;28;1303;-59
2022/02/07 12:25:57;;;;;;;;;;;;;;;10.95;65.48;98759.78;5044945;28;1157;-59
2022/02/07 12:28:31;;;;;;;;;;;;;;;10.93;66.00;98754.66;5092499;28;1973;-59
2022/02/07 12:31:02;;;;;;;;;;;;;;;10.82;66.14;98749.38;5092724;28;921;-59
2022/02/07 12:33:32;;;;;;;;;;;;;;;10.81;65.89;98747.81;5092806;28;834;-59
2022/02/07 12:36:00;;;;;;;;;;;;;;;10.78;66.03;98734.88;5092740;28;819;-59
2022/02/07 12:38:30;;;;;;;;;;;;;;;10.81;65.91;98730.47;5108374;28;904;-58
2022/02/07 12:40:57;;;;;;;;;;;;;;;10.84;66.38;98729.63;5093207;28;851;-59
2022/02/07 12:43:25;;;;;;;;;;;;;;;10.78;66.44;98736.88;5092856;28;878;-59
2022/02/07 12:45:52;;;;;;;;;;;;;;;10.89;66.99;98737.38;5092763;28;912;-59
2022/02/07 12:48:26;;;;;;;;;;;;;;;10.82;66.73;98740.31;5092916;28;1889;-59
2022/02/07 12:50:54;;;;;;;;;;;;;;;10.77;67.81;98730.53;5092234;28;870;-59
2022/02/07 12:53:39;;;;;;;;;;;;;;;10.85;67.31;98724.84;5092552;28;799;-59
2022/02/07 12:56:07;;;;;;;;;;;;;;;10.73;67.30;98710.53;5092354;28;894;-59
2022/02/07 12:58:38;;;;;;;;;;;;;;;10.63;68.06;98717.84;5092248;28;942;-59
2022/02/07 13:01:23;;;;;;;;;;;;;;;10.52;68.53;98706.25;5092266;28;882;-59
2022/02/07 13:03:55;;;;;;;;;;;;;;;10.51;69.15;98690.09;5092264;28;783;-59
2022/02/07 13:06:26;;;;;;;;;;;;;;;10.52;68.55;98694.41;5092115;28;907;-59
2022/02/07 13:08:52;;;;;;;;;;;;;;;10.54;68.62;98689.22;5091954;28;1918;-59
2022/02/07 13:11:25;;;;;;;;;;;;;;;10.59;68.66;98675.69;5092123;28;822;-59
2022/02/07 13:13:53;;;;;;;;;;;;;;;10.60;68.40;98674.50;5092155;28;977;-59
2022/02/07 13:16:20;;;;;;;;;;;;;;;10.69;68.17;98681.38;5092522;28;1053;-59
2022/02/07 13:18:46;;;;;;;;;;;;;;;10.91;67.84;98695.50;5107867;28;1728;-59
2022/02/07 13:21:17;;;;;;;;;;;;;;;11.18;67.13;98698.78;5107747;28;898;-59
2022/02/07 13:23:46;;;;;;;;;;;;;;;11.63;66.24;98686.94;5091627;28;1192;-58
2022/02/07 13:26:13;;;;;;;;;;;;;;;11.83;65.03;98697.84;5091729;28;942;-59
2022/02/07 13:28:42;;;;;;;;;;;;;;;11.91;63.74;98698.47;5091704;28;1978;-59
2022/02/07 13:31:10;;;;;;;;;;;;;;;11.89;64.33;98695.34;5091696;28;905;-59
2022/02/07 13:33:46;;;;;;;;;;;;;;;12.03;64.08;98694.97;5091971;28;850;-59
2022/02/07 13:36:24;;;;;;;;;;;;;;;12.11;63.83;98695.53;5073594;28;1207;-59
2022/02/07 13:38:52;;;;;;;;;;;;;;;12.12;63.42;98699.06;5091677;28;893;-59
2022/02/07 13:41:20;;;;;;;;;;;;;;;12.23;63.64;98691.22;5091049;28;822;-58
2022/02/07 13:43:46;;;;;;;;;;;;;;;12.17;63.57;98679.91;5091655;28;858;-59
2022/02/07 13:46:16;;;;;;;;;;;;;;;11.95;63.96;98679.75;5092006;28;854;-59
2022/02/07 13:48:45;;;;;;;;;;;;;;;11.87;64.65;98675.59;5091425;28;1890;-59
2022/02/07 13:51:12;;;;;;;;;;;;;;;11.77;65.08;98671.16;5091502;28;848;-59
2022/02/07 13:53:38;;;;;;;;;;;;;;;11.73;65.24;98664.94;5091742;28;814;-59
2022/02/07 13:56:05;;;;;;;;;;;;;;;11.70;65.10;98660.28;5091607;28;822;-59
2022/02/07 13:58:36;;;;;;;;;;;;;;;11.50;65.62;98658.44;5091505;28;933;-59
2022/02/07 14:01:04;;;;;;;;;;;;;;;11.28;66.39;98658.22;5091721;28;886;-59
2022/02/07 14:03:39;;;;;;;;;;;;;;;11.19;66.68;98658.84;5091609;28;834;-59
2022/02/07 14:06:08;;;;;;;;;;;;;;;11.08;66.69;98661.09;5091614;28;934;-59
2022/02/07 14:08:36;;;;;;;;;;;;;;;10.91;67.08;98652.03;5091296;28;1949;-59
2022/02/07 14:11:07;;;;;;;;;;;;;;;10.71;67.19;98643.03;5091396;28;826;-59
2022/02/07 14:13:34;;;;;;;;;;;;;;;10.59;67.82;98644.53;5091345;28;890;-59
2022/02/07 14:16:02;;;;;;;;;;;;;;;10.47;68.17;98634.91;5091618;28;1007;-59
2022/02/07 14:18:31;;;;;;;;;;;;;;;10.35;68.09;98627.31;5073352;28;882;-59
2022/02/07 14:20:57;;;;;;;;;;;;;;;10.25;68.14;98626.31;5091100;28;932;-59
2022/02/07 14:23:23;;;;;;;;;;;;;;;10.18;68.07;98630.03;5075000;28;1266;-58
2022/02/07 14:25:58;;;;;;;;;;;;;;;10.12;68.25;98626.19;5071275;28;885;-59
2022/02/07 14:28:24;;;;;;;;;;;;;;;10.02;68.28;98618.94;5071055;28;1979;-59
2022/02/07 14:30:51;;;;;;;;;;;;;;;9.92;68.02;98615.22;5071293;28;861;-58
2022/02/07 14:33:17;;;;;;;;;;;;;;;9.86;68.23;98616.09;5070986;28;889;-59
2022/02/07 14:35:44;;;;;;;;;;;;;;;9.79;68.52;98615.09;5071027;28;855;-59
2022/02/07 14:38:11;;;;;;;;;;;;;;;9.73;68.74;98619.53;5070858;28;870;-58
2022/02/07 14:40:38;;;;;;;;;;;;;;;9.68;68.76;98622.00;5070906;28;835;-58
2022/02/07 14:43:06;;;;;;;;;;;;;;;9.61;69.10;98620.16;5052904;28;866;-58
2022/02/07 14:45:38;;;;;;;;;;;;;;;9.49;69.35;98618.81;5071270;28;859;-58
2022/02/07 14:48:05;;;;;;;;;;;;;;;9.39;69.78;98612.31;5070749;28;946;-58
2022/02/07 14:50:33;;;;;;;;;;;;;;;9.27;70.31;98612.94;5070474;28;1878;-58
2022/02/07 14:52:58;;;;;;;;;;;;;;;9.16;70.46;98609.59;5056097;28;1803;-58
2022/02/07 14:55:26;;;;;;;;;;;;;;;9.10;70.92;98603.78;5074318;28;839;-58
2022/02/07 14:57:53;;;;;;;;;;;;;;;9.00;71.06;98602.00;5056516;28;754;-58
2022/02/07 15:00:22;;;;;;;;;;;;;;;8.93;71.46;98600.16;5074132;28;946;-58
2022/02/07 15:02:49;;;;;;;;;;;;;;;8.92;71.86;98600.59;5074132;28;930;-59
2022/02/07 15:05:16;;;;;;;;;;;;;;;8.86;71.83;98594.00;5074149;28;843;-58
2022/02/07 15:07:43;;;;;;;;;;;;;;;8.78;72.27;98583.09;5074061;28;936;-58
2022/02/07 15:10:11;;;;;;;;;;;;;;;8.70;72.72;98583.63;5074271;28;1935;-58
2022/02/07 15:12:37;;;;;;;;;;;;;;;8.64;72.86;98588.06;5074126;28;859;-59
2022/02/07 15:15:04;;;;;;;;;;;;;;;8.64;72.95;98583.34;5074036;28;947;-58
2022/02/07 15:17:31;;;;;;;;;;;;;;;8.64;73.43;98577.03;5073814;28;873;-59
2022/02/07 15:19:59;;;;;;;;;;;;;;;8.53;73.38;98564.22;5073758;28;933;-59
2022/02/07 15:22:26;;;;;;;;;;;;;;;8.41;73.78;98569.53;5081826;28;1247;-58
2022/02/07 15:24:55;;;;;;;;;;;;;;;8.27;73.46;98563.03;5094173;28;791;-58
2022/02/07 15:27:23;;;;;;;;;;;;;;;8.11;74.10;98563.69;5094128;28;970;-58
2022/02/07 15:29:48;;;;;;;;;;;;;;;8.00;74.60;98563.06;5094029;28;1971;-58
2022/02/07 15:34:51;;;;;;;;;;;;;;;7.73;75.94;98541.81;5093981;28;676;-58
2022/02/07 15:37:18;;;;;;;;;;;;;;;7.56;75.61;98535.34;5093896;28;807;-58
2022/02/07 15:39:45;;;;;;;;;;;;;;;7.49;76.45;98538.22;5093792;28;799;-58
2022/02/07 15:42:12;;;;;;;;;;;;;;;7.38;76.30;98540.28;5093706;28;886;-58
2022/02/07 15:44:38;;;;;;;;;;;;;;;7.20;76.24;98539.75;5093437;28;850;-58
2022/02/07 15:47:05;;;;;;;;;;;;;;;7.05;77.15;98539.88;5093696;28;826;-58
2022/02/07 15:49:31;;;;;;;;;;;;;;;6.93;77.18;98545.91;5093411;28;1885;-58